sensor_id;sensor_type;location;lat;lon;timestamp;P1;durP1;ratioP1;P2;durP2;ratioP2
51915;SDS011;37942;53.218;6.548;2022-08-25T00:01:13;16.90;;;9.40;;
51915;SDS011;37942;53.218;6.548;2022-08-25T00:03:40;13.82;;;8.23;;
51915;SDS011;37942;53.218;6.548;2022-08-25T00:06:06;16.63;;;8.88;;
51915;SDS011;37942;53.218;6.548;2022-08-25T00:08:33;16.27;;;9.18;;
51915;SDS011;37942;53.218;6.548;2022-08-25T00:11:02;19.02;;;9.20;;
51915;SDS011;37942;53.218;6.548;2022-08-25T00:13:28;15.18;;;8.43;;
51915;SDS011;37942;53.218;6.548;2022-08-25T00:15:54;13.48;;;7.38;;
51915;SDS011;37942;53.218;6.548;2022-08-25T00:20:47;14.38;;;7.80;;
51915;SDS011;37942;53.218;6.548;2022-08-25T00:23:13;17.13;;;8.20;;
51915;SDS011;37942;53.218;6.548;2022-08-25T00:25:39;15.43;;;7.50;;
51915;SDS011;37942;53.218;6.548;2022-08-25T00:28:05;13.10;;;7.13;;
51915;SDS011;37942;53.218;6.548;2022-08-25T00:30:31;16.67;;;7.40;;
51915;SDS011;37942;53.218;6.548;2022-08-25T00:32:57;13.52;;;7.03;;
51915;SDS011;37942;53.218;6.548;2022-08-25T00:35:24;15.15;;;7.13;;
51915;SDS011;37942;53.218;6.548;2022-08-25T00:37:51;16.45;;;7.15;;
51915;SDS011;37942;53.218;6.548;2022-08-25T00:40:17;14.93;;;7.18;;
51915;SDS011;37942;53.218;6.548;2022-08-25T00:42:44;13.25;;;6.93;;
51915;SDS011;37942;53.218;6.548;2022-08-25T00:45:10;17.17;;;7.25;;
51915;SDS011;37942;53.218;6.548;2022-08-25T00:47:39;14.65;;;6.97;;
51915;SDS011;37942;53.218;6.548;2022-08-25T00:52:42;15.95;;;6.93;;
51915;SDS011;37942;53.218;6.548;2022-08-25T00:55:10;15.75;;;7.25;;
51915;SDS011;37942;53.218;6.548;2022-08-25T00:57:45;14.93;;;6.68;;
51915;SDS011;37942;53.218;6.548;2022-08-25T01:02:38;15.90;;;6.60;;
51915;SDS011;37942;53.218;6.548;2022-08-25T01:05:04;14.20;;;6.75;;
51915;SDS011;37942;53.218;6.548;2022-08-25T01:07:30;15.68;;;6.30;;
51915;SDS011;37942;53.218;6.548;2022-08-25T01:09:57;16.48;;;6.82;;
51915;SDS011;37942;53.218;6.548;2022-08-25T01:12:24;17.92;;;6.25;;
51915;SDS011;37942;53.218;6.548;2022-08-25T01:14:50;15.43;;;6.43;;
51915;SDS011;37942;53.218;6.548;2022-08-25T01:17:17;14.43;;;6.82;;
51915;SDS011;37942;53.218;6.548;2022-08-25T01:19:44;16.85;;;7.32;;
51915;SDS011;37942;53.218;6.548;2022-08-25T01:24:41;13.18;;;6.30;;
51915;SDS011;37942;53.218;6.548;2022-08-25T01:27:09;18.85;;;6.35;;
51915;SDS011;37942;53.218;6.548;2022-08-25T01:29:36;14.43;;;6.28;;
51915;SDS011;37942;53.218;6.548;2022-08-25T01:32:04;15.85;;;6.60;;
51915;SDS011;37942;53.218;6.548;2022-08-25T01:34:32;12.80;;;6.45;;
51915;SDS011;37942;53.218;6.548;2022-08-25T01:36:59;14.15;;;6.50;;
51915;SDS011;37942;53.218;6.548;2022-08-25T01:39:26;13.57;;;6.30;;
51915;SDS011;37942;53.218;6.548;2022-08-25T01:44:28;14.52;;;6.53;;
51915;SDS011;37942;53.218;6.548;2022-08-25T01:46:54;15.93;;;6.47;;
51915;SDS011;37942;53.218;6.548;2022-08-25T01:49:22;12.40;;;6.10;;
51915;SDS011;37942;53.218;6.548;2022-08-25T01:54:14;16.42;;;6.50;;
51915;SDS011;37942;53.218;6.548;2022-08-25T01:59:06;14.75;;;6.20;;
51915;SDS011;37942;53.218;6.548;2022-08-25T02:03:58;17.63;;;6.80;;
51915;SDS011;37942;53.218;6.548;2022-08-25T02:08:52;15.60;;;6.00;;
51915;SDS011;37942;53.218;6.548;2022-08-25T02:11:18;16.60;;;6.80;;
51915;SDS011;37942;53.218;6.548;2022-08-25T02:13:46;12.68;;;6.28;;
51915;SDS011;37942;53.218;6.548;2022-08-25T02:16:16;15.68;;;6.18;;
51915;SDS011;37942;53.218;6.548;2022-08-25T02:18:44;18.45;;;6.00;;
51915;SDS011;37942;53.218;6.548;2022-08-25T02:21:11;15.52;;;6.25;;
51915;SDS011;37942;53.218;6.548;2022-08-25T02:23:37;14.18;;;6.70;;
51915;SDS011;37942;53.218;6.548;2022-08-25T02:28:29;15.20;;;6.32;;
51915;SDS011;37942;53.218;6.548;2022-08-25T02:33:21;17.38;;;6.13;;
51915;SDS011;37942;53.218;6.548;2022-08-25T02:38:13;18.15;;;6.28;;
51915;SDS011;37942;53.218;6.548;2022-08-25T02:43:05;14.25;;;5.93;;
51915;SDS011;37942;53.218;6.548;2022-08-25T02:45:31;17.08;;;6.20;;
51915;SDS011;37942;53.218;6.548;2022-08-25T02:47:57;12.02;;;6.07;;
51915;SDS011;37942;53.218;6.548;2022-08-25T02:50:24;15.00;;;6.00;;
51915;SDS011;37942;53.218;6.548;2022-08-25T02:52:50;15.68;;;6.40;;
51915;SDS011;37942;53.218;6.548;2022-08-25T02:55:16;14.15;;;5.63;;
51915;SDS011;37942;53.218;6.548;2022-08-25T02:57:43;14.35;;;6.00;;
51915;SDS011;37942;53.218;6.548;2022-08-25T03:00:10;14.13;;;6.15;;
51915;SDS011;37942;53.218;6.548;2022-08-25T03:02:36;16.75;;;6.60;;
51915;SDS011;37942;53.218;6.548;2022-08-25T03:07:28;16.48;;;5.95;;
51915;SDS011;37942;53.218;6.548;2022-08-25T03:12:20;14.50;;;6.15;;
51915;SDS011;37942;53.218;6.548;2022-08-25T03:14:47;14.00;;;5.97;;
51915;SDS011;37942;53.218;6.548;2022-08-25T03:17:13;20.27;;;6.05;;
51915;SDS011;37942;53.218;6.548;2022-08-25T03:19:39;16.80;;;6.65;;
51915;SDS011;37942;53.218;6.548;2022-08-25T03:24:31;14.10;;;6.22;;
51915;SDS011;37942;53.218;6.548;2022-08-25T03:29:24;12.75;;;6.10;;
51915;SDS011;37942;53.218;6.548;2022-08-25T03:31:51;14.73;;;5.90;;
51915;SDS011;37942;53.218;6.548;2022-08-25T03:34:19;15.88;;;6.32;;
51915;SDS011;37942;53.218;6.548;2022-08-25T03:36:45;13.27;;;6.15;;
51915;SDS011;37942;53.218;6.548;2022-08-25T03:39:13;15.18;;;6.30;;
51915;SDS011;37942;53.218;6.548;2022-08-25T03:41:39;19.10;;;6.38;;
51915;SDS011;37942;53.218;6.548;2022-08-25T03:46:52;13.52;;;6.28;;
51915;SDS011;37942;53.218;6.548;2022-08-25T03:49:19;18.20;;;6.57;;
51915;SDS011;37942;53.218;6.548;2022-08-25T03:51:47;13.98;;;5.50;;
51915;SDS011;37942;53.218;6.548;2022-08-25T03:54:14;16.17;;;6.10;;
51915;SDS011;37942;53.218;6.548;2022-08-25T03:56:41;17.27;;;6.13;;
51915;SDS011;37942;53.218;6.548;2022-08-25T04:01:37;15.10;;;6.57;;
51915;SDS011;37942;53.218;6.548;2022-08-25T04:04:04;15.27;;;5.85;;
51915;SDS011;37942;53.218;6.548;2022-08-25T04:06:31;15.32;;;6.25;;
51915;SDS011;37942;53.218;6.548;2022-08-25T04:08:57;16.98;;;6.03;;
51915;SDS011;37942;53.218;6.548;2022-08-25T04:11:24;15.75;;;6.05;;
51915;SDS011;37942;53.218;6.548;2022-08-25T04:13:50;13.23;;;5.70;;
51915;SDS011;37942;53.218;6.548;2022-08-25T04:16:18;14.55;;;5.90;;
51915;SDS011;37942;53.218;6.548;2022-08-25T04:18:45;15.15;;;6.75;;
51915;SDS011;37942;53.218;6.548;2022-08-25T04:21:11;11.93;;;6.13;;
51915;SDS011;37942;53.218;6.548;2022-08-25T04:23:38;13.32;;;6.15;;
51915;SDS011;37942;53.218;6.548;2022-08-25T04:26:08;13.40;;;6.20;;
51915;SDS011;37942;53.218;6.548;2022-08-25T04:28:35;17.83;;;6.45;;
51915;SDS011;37942;53.218;6.548;2022-08-25T04:31:04;17.30;;;6.30;;
51915;SDS011;37942;53.218;6.548;2022-08-25T04:33:30;22.67;;;7.63;;
51915;SDS011;37942;53.218;6.548;2022-08-25T04:35:56;24.77;;;9.25;;
51915;SDS011;37942;53.218;6.548;2022-08-25T04:38:23;21.58;;;8.80;;
51915;SDS011;37942;53.218;6.548;2022-08-25T04:40:59;21.48;;;8.98;;
51915;SDS011;37942;53.218;6.548;2022-08-25T04:45:55;26.63;;;9.55;;
51915;SDS011;37942;53.218;6.548;2022-08-25T04:48:21;21.63;;;8.95;;
51915;SDS011;37942;53.218;6.548;2022-08-25T04:50:49;22.23;;;9.20;;
51915;SDS011;37942;53.218;6.548;2022-08-25T04:53:15;18.83;;;8.77;;
51915;SDS011;37942;53.218;6.548;2022-08-25T04:55:44;20.20;;;8.57;;
51915;SDS011;37942;53.218;6.548;2022-08-25T04:58:10;18.80;;;8.30;;
51915;SDS011;37942;53.218;6.548;2022-08-25T05:00:37;23.05;;;8.77;;
51915;SDS011;37942;53.218;6.548;2022-08-25T05:03:06;18.13;;;8.43;;
51915;SDS011;37942;53.218;6.548;2022-08-25T05:05:35;20.88;;;8.70;;
51915;SDS011;37942;53.218;6.548;2022-08-25T05:08:02;19.13;;;7.30;;
51915;SDS011;37942;53.218;6.548;2022-08-25T05:10:28;18.38;;;8.20;;
51915;SDS011;37942;53.218;6.548;2022-08-25T05:15:20;18.88;;;8.63;;
51915;SDS011;37942;53.218;6.548;2022-08-25T05:18:05;16.70;;;8.35;;
51915;SDS011;37942;53.218;6.548;2022-08-25T05:20:35;16.67;;;8.40;;
51915;SDS011;37942;53.218;6.548;2022-08-25T05:23:01;17.60;;;8.10;;
51915;SDS011;37942;53.218;6.548;2022-08-25T05:25:27;16.75;;;7.95;;
51915;SDS011;37942;53.218;6.548;2022-08-25T05:30:19;16.27;;;8.18;;
51915;SDS011;37942;53.218;6.548;2022-08-25T05:35:12;17.83;;;8.38;;
51915;SDS011;37942;53.218;6.548;2022-08-25T05:40:04;19.42;;;8.18;;
51915;SDS011;37942;53.218;6.548;2022-08-25T05:42:31;20.70;;;8.98;;
51915;SDS011;37942;53.218;6.548;2022-08-25T05:45:00;16.40;;;8.60;;
51915;SDS011;37942;53.218;6.548;2022-08-25T05:49:53;19.08;;;9.02;;
51915;SDS011;37942;53.218;6.548;2022-08-25T05:52:20;17.63;;;8.35;;
51915;SDS011;37942;53.218;6.548;2022-08-25T05:57:12;17.00;;;8.55;;
51915;SDS011;37942;53.218;6.548;2022-08-25T06:02:04;24.08;;;9.18;;
51915;SDS011;37942;53.218;6.548;2022-08-25T06:04:48;20.15;;;8.55;;
51915;SDS011;37942;53.218;6.548;2022-08-25T06:12:10;21.00;;;8.55;;
51915;SDS011;37942;53.218;6.548;2022-08-25T06:14:36;21.63;;;9.13;;
51915;SDS011;37942;53.218;6.548;2022-08-25T06:19:28;25.10;;;9.60;;
51915;SDS011;37942;53.218;6.548;2022-08-25T06:21:55;22.33;;;9.80;;
51915;SDS011;37942;53.218;6.548;2022-08-25T06:24:25;18.48;;;8.82;;
51915;SDS011;37942;53.218;6.548;2022-08-25T06:26:53;19.98;;;9.82;;
51915;SDS011;37942;53.218;6.548;2022-08-25T06:29:20;20.45;;;9.13;;
51915;SDS011;37942;53.218;6.548;2022-08-25T06:31:46;15.82;;;8.73;;
51915;SDS011;37942;53.218;6.548;2022-08-25T06:34:14;18.63;;;9.90;;
51915;SDS011;37942;53.218;6.548;2022-08-25T06:36:41;18.25;;;8.85;;
51915;SDS011;37942;53.218;6.548;2022-08-25T06:39:09;21.65;;;9.18;;
51915;SDS011;37942;53.218;6.548;2022-08-25T06:41:35;23.55;;;9.90;;
51915;SDS011;37942;53.218;6.548;2022-08-25T06:44:02;20.08;;;8.70;;
51915;SDS011;37942;53.218;6.548;2022-08-25T06:46:29;21.60;;;9.70;;
51915;SDS011;37942;53.218;6.548;2022-08-25T06:48:55;19.27;;;9.18;;
51915;SDS011;37942;53.218;6.548;2022-08-25T06:51:22;19.25;;;9.20;;
51915;SDS011;37942;53.218;6.548;2022-08-25T06:53:50;22.25;;;9.32;;
51915;SDS011;37942;53.218;6.548;2022-08-25T06:56:17;21.40;;;9.02;;
51915;SDS011;37942;53.218;6.548;2022-08-25T06:58:45;20.88;;;9.30;;
51915;SDS011;37942;53.218;6.548;2022-08-25T07:01:18;23.60;;;9.30;;
51915;SDS011;37942;53.218;6.548;2022-08-25T07:03:46;25.90;;;10.05;;
51915;SDS011;37942;53.218;6.548;2022-08-25T07:06:12;19.67;;;8.45;;
51915;SDS011;37942;53.218;6.548;2022-08-25T07:11:05;19.02;;;8.70;;
51915;SDS011;37942;53.218;6.548;2022-08-25T07:13:33;17.42;;;8.30;;
51915;SDS011;37942;53.218;6.548;2022-08-25T07:16:02;21.15;;;8.88;;
51915;SDS011;37942;53.218;6.548;2022-08-25T07:18:28;26.25;;;9.05;;
51915;SDS011;37942;53.218;6.548;2022-08-25T07:20:54;17.33;;;8.50;;
51915;SDS011;37942;53.218;6.548;2022-08-25T07:23:22;26.70;;;8.45;;
51915;SDS011;37942;53.218;6.548;2022-08-25T07:25:48;24.02;;;7.82;;
51915;SDS011;37942;53.218;6.548;2022-08-25T07:28:15;21.70;;;8.40;;
51915;SDS011;37942;53.218;6.548;2022-08-25T07:30:41;19.35;;;8.00;;
51915;SDS011;37942;53.218;6.548;2022-08-25T07:33:07;18.70;;;8.38;;
51915;SDS011;37942;53.218;6.548;2022-08-25T07:38:01;21.73;;;8.48;;
51915;SDS011;37942;53.218;6.548;2022-08-25T07:40:29;18.33;;;8.80;;
51915;SDS011;37942;53.218;6.548;2022-08-25T07:42:57;24.00;;;9.73;;
51915;SDS011;37942;53.218;6.548;2022-08-25T07:45:24;18.65;;;7.97;;
51915;SDS011;37942;53.218;6.548;2022-08-25T07:48:02;18.02;;;8.07;;
51915;SDS011;37942;53.218;6.548;2022-08-25T07:50:28;16.80;;;8.30;;
51915;SDS011;37942;53.218;6.548;2022-08-25T07:52:55;13.63;;;7.88;;
51915;SDS011;37942;53.218;6.548;2022-08-25T07:55:22;17.63;;;8.25;;
51915;SDS011;37942;53.218;6.548;2022-08-25T07:57:49;20.52;;;8.15;;
51915;SDS011;37942;53.218;6.548;2022-08-25T08:00:16;19.88;;;7.85;;
51915;SDS011;37942;53.218;6.548;2022-08-25T08:02:43;25.75;;;8.40;;
51915;SDS011;37942;53.218;6.548;2022-08-25T08:05:09;19.13;;;8.00;;
51915;SDS011;37942;53.218;6.548;2022-08-25T08:07:36;19.30;;;7.25;;
51915;SDS011;37942;53.218;6.548;2022-08-25T08:10:03;17.25;;;8.25;;
51915;SDS011;37942;53.218;6.548;2022-08-25T08:12:29;16.50;;;7.47;;
51915;SDS011;37942;53.218;6.548;2022-08-25T08:14:55;14.85;;;7.07;;
51915;SDS011;37942;53.218;6.548;2022-08-25T08:19:47;18.90;;;7.60;;
51915;SDS011;37942;53.218;6.548;2022-08-25T08:24:39;18.15;;;7.25;;
51915;SDS011;37942;53.218;6.548;2022-08-25T08:27:08;17.35;;;7.35;;
51915;SDS011;37942;53.218;6.548;2022-08-25T08:29:35;14.20;;;7.25;;
51915;SDS011;37942;53.218;6.548;2022-08-25T08:32:02;20.58;;;6.90;;
51915;SDS011;37942;53.218;6.548;2022-08-25T08:34:28;16.08;;;6.72;;
51915;SDS011;37942;53.218;6.548;2022-08-25T08:36:55;15.38;;;6.65;;
51915;SDS011;37942;53.218;6.548;2022-08-25T08:39:21;20.88;;;6.90;;
51915;SDS011;37942;53.218;6.548;2022-08-25T08:49:40;18.42;;;7.00;;
51915;SDS011;37942;53.218;6.548;2022-08-25T08:52:09;16.50;;;6.65;;
51915;SDS011;37942;53.218;6.548;2022-08-25T08:54:39;20.65;;;7.10;;
51915;SDS011;37942;53.218;6.548;2022-08-25T08:59:38;15.00;;;6.88;;
51915;SDS011;37942;53.218;6.548;2022-08-25T09:02:12;16.77;;;6.85;;
51915;SDS011;37942;53.218;6.548;2022-08-25T09:07:10;17.40;;;6.60;;
51915;SDS011;37942;53.218;6.548;2022-08-25T09:09:36;15.48;;;6.85;;
51915;SDS011;37942;53.218;6.548;2022-08-25T09:12:12;15.88;;;6.72;;
51915;SDS011;37942;53.218;6.548;2022-08-25T09:20:25;14.80;;;5.75;;
51915;SDS011;37942;53.218;6.548;2022-08-25T09:30:44;15.02;;;6.00;;
51915;SDS011;37942;53.218;6.548;2022-08-25T09:33:14;14.18;;;6.13;;
51915;SDS011;37942;53.218;6.548;2022-08-25T09:35:43;14.00;;;5.53;;
51915;SDS011;37942;53.218;6.548;2022-08-25T09:38:11;12.65;;;5.35;;
51915;SDS011;37942;53.218;6.548;2022-08-25T09:40:38;14.70;;;5.63;;
51915;SDS011;37942;53.218;6.548;2022-08-25T09:43:08;18.90;;;6.28;;
51915;SDS011;37942;53.218;6.548;2022-08-25T09:45:46;14.95;;;5.53;;
51915;SDS011;37942;53.218;6.548;2022-08-25T09:48:21;17.70;;;5.90;;
51915;SDS011;37942;53.218;6.548;2022-08-25T09:50:49;18.70;;;5.55;;
51915;SDS011;37942;53.218;6.548;2022-08-25T09:53:15;14.35;;;4.85;;
51915;SDS011;37942;53.218;6.548;2022-08-25T09:55:45;13.85;;;5.00;;
51915;SDS011;37942;53.218;6.548;2022-08-25T09:58:20;13.25;;;4.80;;
51915;SDS011;37942;53.218;6.548;2022-08-25T10:01:04;10.75;;;4.70;;
51915;SDS011;37942;53.218;6.548;2022-08-25T10:03:31;12.93;;;4.80;;
51915;SDS011;37942;53.218;6.548;2022-08-25T10:06:05;10.73;;;4.75;;
51915;SDS011;37942;53.218;6.548;2022-08-25T10:11:03;16.85;;;4.68;;
51915;SDS011;37942;53.218;6.548;2022-08-25T10:13:34;17.63;;;4.95;;
51915;SDS011;37942;53.218;6.548;2022-08-25T10:16:06;15.93;;;4.78;;
51915;SDS011;37942;53.218;6.548;2022-08-25T10:18:36;15.68;;;4.70;;
51915;SDS011;37942;53.218;6.548;2022-08-25T10:21:04;9.98;;;4.63;;
51915;SDS011;37942;53.218;6.548;2022-08-25T10:23:31;14.80;;;4.40;;
51915;SDS011;37942;53.218;6.548;2022-08-25T10:26:03;13.43;;;4.72;;
51915;SDS011;37942;53.218;6.548;2022-08-25T10:31:17;18.77;;;5.32;;
51915;SDS011;37942;53.218;6.548;2022-08-25T10:36:31;15.70;;;4.93;;
51915;SDS011;37942;53.218;6.548;2022-08-25T10:47:22;12.35;;;4.80;;
51915;SDS011;37942;53.218;6.548;2022-08-25T10:49:47;15.70;;;4.47;;
51915;SDS011;37942;53.218;6.548;2022-08-25T10:54:46;13.98;;;4.45;;
51915;SDS011;37942;53.218;6.548;2022-08-25T10:57:22;11.35;;;4.68;;
51915;SDS011;37942;53.218;6.548;2022-08-25T11:05:22;13.60;;;5.60;;
51915;SDS011;37942;53.218;6.548;2022-08-25T11:07:52;14.57;;;5.22;;
51915;SDS011;37942;53.218;6.548;2022-08-25T11:10:37;12.27;;;4.93;;
51915;SDS011;37942;53.218;6.548;2022-08-25T11:13:07;15.20;;;4.95;;
51915;SDS011;37942;53.218;6.548;2022-08-25T11:15:39;13.18;;;4.40;;
51915;SDS011;37942;53.218;6.548;2022-08-25T11:18:09;11.68;;;5.22;;
51915;SDS011;37942;53.218;6.548;2022-08-25T11:23:43;15.98;;;4.85;;
51915;SDS011;37942;53.218;6.548;2022-08-25T11:26:13;14.27;;;4.97;;
51915;SDS011;37942;53.218;6.548;2022-08-25T11:31:18;13.40;;;4.55;;
51915;SDS011;37942;53.218;6.548;2022-08-25T11:33:47;13.77;;;4.38;;
51915;SDS011;37942;53.218;6.548;2022-08-25T11:36:27;13.90;;;4.80;;
51915;SDS011;37942;53.218;6.548;2022-08-25T11:44:33;13.10;;;5.23;;
51915;SDS011;37942;53.218;6.548;2022-08-25T11:57:39;12.88;;;4.85;;
51915;SDS011;37942;53.218;6.548;2022-08-25T12:00:10;12.02;;;4.95;;
51915;SDS011;37942;53.218;6.548;2022-08-25T12:02:45;14.80;;;4.97;;
51915;SDS011;37942;53.218;6.548;2022-08-25T12:26:01;12.93;;;4.75;;
51915;SDS011;37942;53.218;6.548;2022-08-25T12:28:40;11.93;;;4.50;;
51915;SDS011;37942;53.218;6.548;2022-08-25T12:34:15;10.90;;;4.15;;
51915;SDS011;37942;53.218;6.548;2022-08-25T12:36:57;11.00;;;4.20;;
51915;SDS011;37942;53.218;6.548;2022-08-25T12:39:28;10.95;;;4.10;;
51915;SDS011;37942;53.218;6.548;2022-08-25T12:42:02;9.85;;;4.20;;
51915;SDS011;37942;53.218;6.548;2022-08-25T12:44:33;16.42;;;4.18;;
51915;SDS011;37942;53.218;6.548;2022-08-25T12:47:11;14.75;;;4.30;;
51915;SDS011;37942;53.218;6.548;2022-08-25T12:49:37;11.77;;;4.30;;
51915;SDS011;37942;53.218;6.548;2022-08-25T12:52:11;11.32;;;4.20;;
51915;SDS011;37942;53.218;6.548;2022-08-25T12:54:48;11.90;;;4.50;;
51915;SDS011;37942;53.218;6.548;2022-08-25T12:59:51;13.38;;;4.30;;
51915;SDS011;37942;53.218;6.548;2022-08-25T13:05:02;10.95;;;4.63;;
51915;SDS011;37942;53.218;6.548;2022-08-25T13:08:06;10.98;;;4.07;;
51915;SDS011;37942;53.218;6.548;2022-08-25T13:15:45;11.95;;;4.30;;
51915;SDS011;37942;53.218;6.548;2022-08-25T13:18:13;9.40;;;4.10;;
51915;SDS011;37942;53.218;6.548;2022-08-25T13:20:39;14.15;;;4.40;;
51915;SDS011;37942;53.218;6.548;2022-08-25T13:23:06;9.20;;;3.97;;
51915;SDS011;37942;53.218;6.548;2022-08-25T13:25:32;11.02;;;4.28;;
51915;SDS011;37942;53.218;6.548;2022-08-25T13:28:00;11.15;;;3.95;;
51915;SDS011;37942;53.218;6.548;2022-08-25T13:30:31;10.77;;;4.10;;
51915;SDS011;37942;53.218;6.548;2022-08-25T13:32:57;10.90;;;3.85;;
51915;SDS011;37942;53.218;6.548;2022-08-25T13:35:26;9.00;;;4.13;;
51915;SDS011;37942;53.218;6.548;2022-08-25T13:37:53;9.60;;;4.20;;
51915;SDS011;37942;53.218;6.548;2022-08-25T13:42:46;11.85;;;4.45;;
51915;SDS011;37942;53.218;6.548;2022-08-25T13:45:16;14.02;;;4.53;;
51915;SDS011;37942;53.218;6.548;2022-08-25T13:47:42;10.27;;;4.30;;
51915;SDS011;37942;53.218;6.548;2022-08-25T13:52:58;11.90;;;4.25;;
51915;SDS011;37942;53.218;6.548;2022-08-25T13:55:27;14.63;;;4.65;;
51915;SDS011;37942;53.218;6.548;2022-08-25T13:57:55;14.98;;;6.50;;
51915;SDS011;37942;53.218;6.548;2022-08-25T14:00:42;12.38;;;4.20;;
51915;SDS011;37942;53.218;6.548;2022-08-25T14:03:26;9.60;;;4.13;;
51915;SDS011;37942;53.218;6.548;2022-08-25T14:06:02;11.20;;;4.70;;
51915;SDS011;37942;53.218;6.548;2022-08-25T14:11:12;14.18;;;4.45;;
51915;SDS011;37942;53.218;6.548;2022-08-25T14:13:39;11.40;;;4.05;;
51915;SDS011;37942;53.218;6.548;2022-08-25T14:18:35;15.05;;;4.10;;
51915;SDS011;37942;53.218;6.548;2022-08-25T14:21:02;13.82;;;4.30;;
51915;SDS011;37942;53.218;6.548;2022-08-25T14:23:34;9.70;;;4.40;;
51915;SDS011;37942;53.218;6.548;2022-08-25T14:26:00;12.35;;;4.28;;
51915;SDS011;37942;53.218;6.548;2022-08-25T14:28:27;12.18;;;4.53;;
51915;SDS011;37942;53.218;6.548;2022-08-25T14:31:12;10.77;;;3.90;;
51915;SDS011;37942;53.218;6.548;2022-08-25T14:33:42;14.15;;;4.45;;
51915;SDS011;37942;53.218;6.548;2022-08-25T14:36:08;13.05;;;4.40;;
51915;SDS011;37942;53.218;6.548;2022-08-25T14:38:34;11.07;;;4.55;;
51915;SDS011;37942;53.218;6.548;2022-08-25T14:41:03;10.38;;;4.57;;
51915;SDS011;37942;53.218;6.548;2022-08-25T14:43:30;13.05;;;4.80;;
51915;SDS011;37942;53.218;6.548;2022-08-25T14:45:56;12.02;;;4.38;;
51915;SDS011;37942;53.218;6.548;2022-08-25T14:50:49;10.80;;;4.70;;
51915;SDS011;37942;53.218;6.548;2022-08-25T14:53:15;12.52;;;4.60;;
51915;SDS011;37942;53.218;6.548;2022-08-25T14:55:41;10.75;;;4.55;;
51915;SDS011;37942;53.218;6.548;2022-08-25T14:58:07;12.73;;;5.18;;
51915;SDS011;37942;53.218;6.548;2022-08-25T15:00:41;13.18;;;5.10;;
51915;SDS011;37942;53.218;6.548;2022-08-25T15:03:14;11.90;;;4.60;;
51915;SDS011;37942;53.218;6.548;2022-08-25T15:05:41;11.65;;;5.10;;
51915;SDS011;37942;53.218;6.548;2022-08-25T15:08:08;13.15;;;5.18;;
51915;SDS011;37942;53.218;6.548;2022-08-25T15:10:52;12.55;;;4.75;;
51915;SDS011;37942;53.218;6.548;2022-08-25T15:13:18;12.93;;;5.32;;
51915;SDS011;37942;53.218;6.548;2022-08-25T15:15:45;12.73;;;5.10;;
51915;SDS011;37942;53.218;6.548;2022-08-25T15:18:11;11.77;;;5.05;;
51915;SDS011;37942;53.218;6.548;2022-08-25T15:20:38;12.02;;;5.10;;
51915;SDS011;37942;53.218;6.548;2022-08-25T15:23:04;10.73;;;5.00;;
51915;SDS011;37942;53.218;6.548;2022-08-25T15:25:33;16.38;;;4.90;;
51915;SDS011;37942;53.218;6.548;2022-08-25T15:28:02;13.13;;;5.63;;
51915;SDS011;37942;53.218;6.548;2022-08-25T15:30:29;12.27;;;4.82;;
51915;SDS011;37942;53.218;6.548;2022-08-25T15:32:55;13.40;;;4.75;;
51915;SDS011;37942;53.218;6.548;2022-08-25T15:35:21;13.02;;;4.65;;
51915;SDS011;37942;53.218;6.548;2022-08-25T15:37:47;13.02;;;4.93;;
51915;SDS011;37942;53.218;6.548;2022-08-25T15:40:13;11.57;;;5.07;;
51915;SDS011;37942;53.218;6.548;2022-08-25T15:42:41;13.27;;;4.60;;
51915;SDS011;37942;53.218;6.548;2022-08-25T15:45:08;10.68;;;4.82;;
51915;SDS011;37942;53.218;6.548;2022-08-25T15:47:34;12.55;;;4.75;;
51915;SDS011;37942;53.218;6.548;2022-08-25T15:50:10;13.43;;;5.15;;
51915;SDS011;37942;53.218;6.548;2022-08-25T15:52:38;10.95;;;4.85;;
51915;SDS011;37942;53.218;6.548;2022-08-25T15:55:05;11.80;;;4.95;;
51915;SDS011;37942;53.218;6.548;2022-08-25T15:57:32;11.55;;;5.00;;
51915;SDS011;37942;53.218;6.548;2022-08-25T15:59:58;13.95;;;5.00;;
51915;SDS011;37942;53.218;6.548;2022-08-25T16:02:24;12.43;;;4.90;;
51915;SDS011;37942;53.218;6.548;2022-08-25T16:04:50;12.55;;;4.82;;
51915;SDS011;37942;53.218;6.548;2022-08-25T16:07:17;11.25;;;5.50;;
51915;SDS011;37942;53.218;6.548;2022-08-25T16:09:44;11.35;;;4.70;;
51915;SDS011;37942;53.218;6.548;2022-08-25T16:12:10;12.48;;;4.95;;
51915;SDS011;37942;53.218;6.548;2022-08-25T16:14:37;12.43;;;5.15;;
51915;SDS011;37942;53.218;6.548;2022-08-25T16:17:03;10.15;;;4.93;;
51915;SDS011;37942;53.218;6.548;2022-08-25T16:19:30;13.45;;;5.10;;
51915;SDS011;37942;53.218;6.548;2022-08-25T16:21:56;12.93;;;4.80;;
51915;SDS011;37942;53.218;6.548;2022-08-25T16:24:23;12.00;;;4.45;;
51915;SDS011;37942;53.218;6.548;2022-08-25T16:26:49;10.07;;;4.95;;
51915;SDS011;37942;53.218;6.548;2022-08-25T16:29:16;12.35;;;4.82;;
51915;SDS011;37942;53.218;6.548;2022-08-25T16:31:43;12.02;;;4.80;;
51915;SDS011;37942;53.218;6.548;2022-08-25T16:34:10;14.07;;;4.50;;
51915;SDS011;37942;53.218;6.548;2022-08-25T16:36:36;12.85;;;5.07;;
51915;SDS011;37942;53.218;6.548;2022-08-25T16:39:03;10.50;;;4.57;;
51915;SDS011;37942;53.218;6.548;2022-08-25T16:41:30;12.40;;;4.72;;
51915;SDS011;37942;53.218;6.548;2022-08-25T16:44:03;12.77;;;4.40;;
51915;SDS011;37942;53.218;6.548;2022-08-25T16:46:33;9.73;;;4.78;;
51915;SDS011;37942;53.218;6.548;2022-08-25T16:49:00;10.55;;;4.03;;
51915;SDS011;37942;53.218;6.548;2022-08-25T16:51:26;12.60;;;4.20;;
51915;SDS011;37942;53.218;6.548;2022-08-25T16:53:53;13.68;;;4.60;;
51915;SDS011;37942;53.218;6.548;2022-08-25T16:56:37;12.10;;;4.60;;
51915;SDS011;37942;53.218;6.548;2022-08-25T16:59:06;10.90;;;4.55;;
51915;SDS011;37942;53.218;6.548;2022-08-25T17:01:33;11.32;;;4.38;;
51915;SDS011;37942;53.218;6.548;2022-08-25T17:03:59;12.65;;;4.97;;
51915;SDS011;37942;53.218;6.548;2022-08-25T17:06:26;14.60;;;4.80;;
51915;SDS011;37942;53.218;6.548;2022-08-25T17:08:54;12.93;;;4.90;;
51915;SDS011;37942;53.218;6.548;2022-08-25T17:11:22;11.75;;;4.70;;
51915;SDS011;37942;53.218;6.548;2022-08-25T17:13:51;10.45;;;4.75;;
51915;SDS011;37942;53.218;6.548;2022-08-25T17:16:17;12.23;;;4.85;;
51915;SDS011;37942;53.218;6.548;2022-08-25T17:18:45;11.52;;;5.32;;
51915;SDS011;37942;53.218;6.548;2022-08-25T17:21:12;10.80;;;4.80;;
51915;SDS011;37942;53.218;6.548;2022-08-25T17:23:42;12.98;;;5.30;;
51915;SDS011;37942;53.218;6.548;2022-08-25T17:26:09;10.60;;;5.00;;
51915;SDS011;37942;53.218;6.548;2022-08-25T17:28:36;10.98;;;5.05;;
51915;SDS011;37942;53.218;6.548;2022-08-25T17:31:03;13.00;;;4.88;;
51915;SDS011;37942;53.218;6.548;2022-08-25T17:33:29;11.80;;;4.55;;
51915;SDS011;37942;53.218;6.548;2022-08-25T17:35:56;13.40;;;5.50;;
51915;SDS011;37942;53.218;6.548;2022-08-25T17:38:23;11.38;;;5.20;;
51915;SDS011;37942;53.218;6.548;2022-08-25T17:40:54;11.23;;;5.30;;
51915;SDS011;37942;53.218;6.548;2022-08-25T17:43:21;12.30;;;5.15;;
51915;SDS011;37942;53.218;6.548;2022-08-25T17:45:48;11.55;;;5.43;;
51915;SDS011;37942;53.218;6.548;2022-08-25T17:48:15;11.07;;;5.45;;
51915;SDS011;37942;53.218;6.548;2022-08-25T17:50:42;11.40;;;5.13;;
51915;SDS011;37942;53.218;6.548;2022-08-25T17:53:12;11.60;;;5.10;;
51915;SDS011;37942;53.218;6.548;2022-08-25T17:55:38;13.60;;;5.43;;
51915;SDS011;37942;53.218;6.548;2022-08-25T17:58:06;13.73;;;5.55;;
51915;SDS011;37942;53.218;6.548;2022-08-25T18:00:32;19.30;;;5.68;;
51915;SDS011;37942;53.218;6.548;2022-08-25T18:02:59;15.90;;;5.82;;
51915;SDS011;37942;53.218;6.548;2022-08-25T18:05:26;11.63;;;5.70;;